• Join FlightAware (Why Join?)
  • Login
  • US Flag 
08:35PM EDT


 

Airport Tracker/Info


-or-


 

Live Flight TrackerFlight Track Log ✈ ASQ5393 ✈ 27-Apr-2012 ✈ KATL - KVPS

Flight Track Log - Related Links

Times and Time Zones

All times are in EDT time to prevent confusion due to time zone crossing. See the ASQ5393 flight status page for this flight to view local times or setup timezone preferences in your user account.

Time Position Orientation Groundspeed Altitude Reporting Facility
EDT Latitude Longitude Course Direction KTS MPH feet Rate Location/Type
09:04PM 33.6333 -84.3953 271° West  Level FlightAware Approximate
09:05PM 33.6347 -84.5428 211° Southwest 431 496 3,900  Level Atlanta Center
09:06PM 33.5803 -84.5825 171° South 308 354 6,300 2,520 Climbing Atlanta Center
09:07PM 33.5114 -84.5694 172° South 293 337 9,000 2,100 Climbing Atlanta Center
09:08PM 33.4217 -84.5542 175° South 307 353 10,600 1,920 Climbing Atlanta Center
09:09PM 33.3297 -84.5436 176° South 327 376 12,900 1,920 Climbing Atlanta Center
09:10PM 33.2297 -84.5356 175° South 354 407 14,500 1,560 Climbing Atlanta Center
09:11PM 33.1211 -84.5250 209° Southwest 387 445 16,100 1,800 Climbing Atlanta Center
09:12PM 33.0311 -84.5839 220° Southwest 367 422 18,100 2,040 Climbing Atlanta Center
09:13PM 32.9389 -84.6750 219° Southwest 381 438 20,200 1,800 Climbing Atlanta Center
09:14PM 32.8569 -84.7533 220° Southwest 386 444 21,800 1,500 Climbing Atlanta Center
09:15PM 32.7794 -84.8294 217° Southwest 396 456 23,200 1,500 Climbing Atlanta Center
09:16PM 32.6828 -84.9175 221° Southwest 403 464 24,800 1,320 Climbing Atlanta Center
09:17PM 32.6008 -85.0028 218° Southwest 405 466 25,900 1,020 Climbing Atlanta Center
09:18PM 32.5061 -85.0906 220° Southwest 416 479 26,900 960 Climbing Atlanta Center
09:19PM 32.4178 -85.1781 219° Southwest 430 495 27,900 540 Climbing Atlanta Center
09:20PM 32.3186 -85.2728 220° Southwest 437 503 28,000  Climbing Atlanta Center
09:21PM 32.2236 -85.3672 219° Southwest 442 509 28,000 -360 Level Atlanta Center
09:22PM 32.1372 -85.4492 218° Southwest 455 524 27,300 -1,140 Descending Atlanta Center
09:24PM 31.9131 -85.6581 219° Southwest 460 529 24,600 -1,080 Descending Jacksonville Center
09:25PM 31.8147 -85.7531 220° Southwest 460 529 24,000 -300 Descending Jacksonville Center
09:26PM 31.7186 -85.8478 218° Southwest 460 529 24,000  Level Jacksonville Center
09:27PM 31.6183 -85.9397 219° Southwest 460 529 24,000 -600 Level Jacksonville Center
09:28PM 31.5331 -86.0197 219° Southwest 454 522 22,900 -1,680 Descending Jacksonville Center
09:29PM 31.4431 -86.1044 219° Southwest 442 509 20,700 -2,160 Descending Jacksonville Center
09:30PM 31.3489 -86.1936 219° Southwest 437 503 18,600 -1,920 Descending Jacksonville Center
09:31PM 31.2592 -86.2778 218° Southwest 431 496 16,900 -2,160 Descending Jacksonville Center
09:32PM 31.1733 -86.3575 219° Southwest 414 476 14,300 -2,700 Descending Jacksonville Center
09:33PM 31.0856 -86.4414 214° Southwest 395 455 11,600 -1,800 Descending Jacksonville Center
09:34PM 31.0108 -86.4992 181° South 355 409 10,800 -1,800 Descending Jacksonville Center
09:35PM 30.9314 -86.5011 175° South 293 337 8,100 -2,220 Descending Jacksonville Center
09:36PM 30.8503 -86.4931 174° South 287 330 6,400 -1,560 Descending Jacksonville Center
09:37PM 30.7878 -86.4858 172° South 259 298 5,000 -1,200 Descending Jacksonville Center
09:38PM 30.7339 -86.4767 174° South 228 262 4,100 -780 Descending Jacksonville Center
09:39PM 30.6797 -86.4697 187° South 207 238 3,500 -840 Descending Jacksonville Center
09:40PM 30.6275 -86.4775 187° South 193 222 2,500 -1,020 Descending Jacksonville Center